PWSweather.com
Personal Weather Stations
Station Observations
KMARTIN
Lusby, Lusby, MD 20657

LusbyLusby, MD 20657

Lat: 38.381, Lon: -76.405

Elevation: 90

Station Type:

http://www.nitram-media.com/weather

Latest ConditionsUpdated 7:35:08 AM EDT Thursday, Apr 26, 2018
Currently Today's Max Today's Min Today's Average
Temperature 50.3°F10.2°C 57.3°F14.1°C 49.6°F9.8°C 53.7°F12.1°C
Dew Point 42.0°F5.6°C 55.9°F13.3°C 42.0°F5.6°C 49.6°F9.8°C
Winds 1.0 mph W1.6 kmh W 6.0 mph W9.7 kmh W - 1.0 mph 1.6 kmh
Wind Gusts 8.0 mph12.9 kmh 9.0 mph14.5 kmh - -
Humidity 73% 95% 73% 86%
Pressure 29.71 in1006.1 mb 29.71 in1006.1 mb 29.58 in1001.7 mb -
Hour Temp Dew Point Humidity Winds Wind Gusts Pressure Precip Precip Rate Daily Precip Total
07:35 AM 50.3°F10.2°C 42.0°F5.6°C 73% 1.0 mph W1.6 kmh W 8.0 mph12.9 kmh 29.71 in1006.1 mb 0.00 in0.0 mm 0.00 in0.0 mm 0.00 in0.0 mm
07:31 AM 50.2°F10.1°C 42.2°F5.7°C 74% Calm Calm 4.0 mph6.4 kmh 29.71 in1006.1 mb 0.00 in0.0 mm 0.00 in0.0 mm 0.00 in0.0 mm
07:25 AM 50.1°F10.1°C 42.2°F5.7°C 74% 3.0 mph W4.8 kmh W 7.0 mph11.3 kmh 29.70 in1005.8 mb 0.00 in0.0 mm 0.00 in0.0 mm 0.00 in0.0 mm
07:20 AM 50.0°F10.0°C 42.1°F5.6°C 74% 3.0 mph W4.8 kmh W 7.0 mph11.3 kmh 29.70 in1005.8 mb 0.00 in0.0 mm 0.00 in0.0 mm 0.00 in0.0 mm
07:15 AM 49.9°F9.9°C 42.3°F5.7°C 75% 2.0 mph WSW3.2 kmh WSW 7.0 mph11.3 kmh 29.70 in1005.8 mb 0.00 in0.0 mm 0.00 in0.0 mm 0.00 in0.0 mm
07:10 AM 49.7°F9.8°C 42.1°F5.6°C 75% 2.0 mph SW3.2 kmh SW 6.0 mph9.7 kmh 29.70 in1005.8 mb 0.00 in0.0 mm 0.00 in0.0 mm 0.00 in0.0 mm
07:05 AM 49.6°F9.8°C 42.4°F5.8°C 76% 5.0 mph W8.0 kmh W 5.0 mph8.0 kmh 29.69 in1005.4 mb 0.00 in0.0 mm 0.00 in0.0 mm 0.00 in0.0 mm
07:00 AM 49.6°F9.8°C 42.4°F5.8°C 76% Calm Calm 4.0 mph6.4 kmh 29.69 in1005.4 mb 0.00 in0.0 mm 0.00 in0.0 mm 0.00 in0.0 mm
06:55 AM 49.7°F9.8°C 42.1°F5.6°C 75% Calm Calm 7.0 mph11.3 kmh 29.69 in1005.4 mb 0.00 in0.0 mm 0.00 in0.0 mm 0.00 in0.0 mm
06:50 AM 49.7°F9.8°C 42.1°F5.6°C 75% Calm Calm 7.0 mph11.3 kmh 29.69 in1005.4 mb 0.00 in0.0 mm 0.00 in0.0 mm 0.00 in0.0 mm
06:45 AM 49.8°F9.9°C 42.2°F5.7°C 75% 2.0 mph W3.2 kmh W 7.0 mph11.3 kmh 29.68 in1005.1 mb 0.00 in0.0 mm 0.00 in0.0 mm 0.00 in0.0 mm
06:40 AM 49.9°F9.9°C 42.3°F5.7°C 75% 2.0 mph W3.2 kmh W 7.0 mph11.3 kmh 29.68 in1005.1 mb 0.00 in0.0 mm 0.00 in0.0 mm 0.00 in0.0 mm
06:30 AM 50.1°F10.1°C 42.5°F5.8°C 75% Calm Calm 4.0 mph6.4 kmh 29.67 in1004.7 mb 0.00 in0.0 mm 0.00 in0.0 mm 0.00 in0.0 mm
06:25 AM 50.3°F10.2°C 42.7°F5.9°C 75% 2.0 mph W3.2 kmh W 8.0 mph12.9 kmh 29.67 in1004.7 mb 0.00 in0.0 mm 0.00 in0.0 mm 0.00 in0.0 mm
06:20 AM 50.5°F10.3°C 42.9°F6.1°C 75% Calm Calm 8.0 mph12.9 kmh 29.67 in1004.7 mb 0.00 in0.0 mm 0.00 in0.0 mm 0.00 in0.0 mm
06:15 AM 50.6°F10.3°C 42.6°F5.9°C 74% 1.0 mph WNW1.6 kmh WNW 8.0 mph12.9 kmh 29.67 in1004.7 mb 0.00 in0.0 mm 0.00 in0.0 mm 0.00 in0.0 mm
06:10 AM 50.7°F10.4°C 42.7°F5.9°C 74% 2.0 mph WSW3.2 kmh WSW 8.0 mph12.9 kmh 29.67 in1004.7 mb 0.00 in0.0 mm 0.00 in0.0 mm 0.00 in0.0 mm
06:05 AM 50.9°F10.5°C 42.9°F6.1°C 74% 3.0 mph W4.8 kmh W 8.0 mph12.9 kmh 29.67 in1004.7 mb 0.00 in0.0 mm 0.00 in0.0 mm 0.00 in0.0 mm
05:55 AM 51.2°F10.7°C 43.2°F6.2°C 74% 3.0 mph WSW4.8 kmh WSW 7.0 mph11.3 kmh 29.67 in1004.7 mb 0.00 in0.0 mm 0.00 in0.0 mm 0.00 in0.0 mm
05:50 AM 51.3°F10.7°C 43.3°F6.3°C 74% 2.0 mph WSW3.2 kmh WSW 7.0 mph11.3 kmh 29.67 in1004.7 mb 0.00 in0.0 mm 0.00 in0.0 mm 0.00 in0.0 mm
05:45 AM 51.5°F10.8°C 43.9°F6.6°C 75% 6.0 mph W9.7 kmh W 7.0 mph11.3 kmh 29.67 in1004.7 mb 0.00 in0.0 mm 0.00 in0.0 mm 0.00 in0.0 mm
05:40 AM 51.7°F10.9°C 44.0°F6.7°C 75% Calm Calm 7.0 mph11.3 kmh 29.67 in1004.7 mb 0.00 in0.0 mm 0.00 in0.0 mm 0.00 in0.0 mm
05:35 AM 51.9°F11.1°C 44.6°F7.0°C 76% Calm Calm 7.0 mph11.3 kmh 29.67 in1004.7 mb 0.00 in0.0 mm 0.00 in0.0 mm 0.00 in0.0 mm
05:30 AM 52.1°F11.2°C 45.1°F7.3°C 77% Calm Calm 4.0 mph6.4 kmh 29.66 in1004.4 mb 0.00 in0.0 mm 0.00 in0.0 mm 0.00 in0.0 mm
05:25 AM 52.2°F11.2°C 45.2°F7.3°C 77% 4.0 mph W6.4 kmh W 8.0 mph12.9 kmh 29.66 in1004.4 mb 0.00 in0.0 mm 0.00 in0.0 mm 0.00 in0.0 mm
05:20 AM 52.3°F11.3°C 45.7°F7.6°C 78% 2.0 mph W3.2 kmh W 8.0 mph12.9 kmh 29.66 in1004.4 mb 0.00 in0.0 mm 0.00 in0.0 mm 0.00 in0.0 mm
05:15 AM 52.4°F11.3°C 45.8°F7.7°C 78% 1.0 mph W1.6 kmh W 8.0 mph12.9 kmh 29.66 in1004.4 mb 0.00 in0.0 mm 0.00 in0.0 mm 0.00 in0.0 mm
05:10 AM 52.5°F11.4°C 46.2°F7.9°C 79% Calm Calm 8.0 mph12.9 kmh 29.66 in1004.4 mb 0.00 in0.0 mm 0.00 in0.0 mm 0.00 in0.0 mm
05:05 AM 52.6°F11.4°C 46.3°F7.9°C 79% Calm Calm 5.0 mph8.0 kmh 29.66 in1004.4 mb 0.00 in0.0 mm 0.00 in0.0 mm 0.00 in0.0 mm
05:00 AM 52.8°F11.6°C 46.8°F8.2°C 80% 1.0 mph WSW1.6 kmh WSW 1.0 mph1.6 kmh 29.66 in1004.4 mb 0.00 in0.0 mm 0.00 in0.0 mm 0.00 in0.0 mm
04:55 AM 52.9°F11.6°C 46.9°F8.3°C 80% Calm Calm 9.0 mph14.5 kmh 29.66 in1004.4 mb 0.00 in0.0 mm 0.00 in0.0 mm 0.00 in0.0 mm
04:50 AM 53.0°F11.7°C 47.3°F8.5°C 81% Calm Calm 9.0 mph14.5 kmh 29.66 in1004.4 mb 0.00 in0.0 mm 0.00 in0.0 mm 0.00 in0.0 mm
04:45 AM 53.1°F11.7°C 48.1°F8.9°C 83% Calm Calm 9.0 mph14.5 kmh 29.66 in1004.4 mb 0.00 in0.0 mm 0.00 in0.0 mm 0.00 in0.0 mm
04:40 AM 53.1°F11.7°C 48.7°F9.3°C 85% 3.0 mph W4.8 kmh W 6.0 mph9.7 kmh 29.65 in1004.1 mb 0.00 in0.0 mm 0.00 in0.0 mm 0.00 in0.0 mm
04:35 AM 53.1°F11.7°C 49.3°F9.6°C 87% Calm Calm 5.0 mph8.0 kmh 29.65 in1004.1 mb 0.00 in0.0 mm 0.00 in0.0 mm 0.00 in0.0 mm
04:30 AM 53.2°F11.8°C 49.4°F9.7°C 87% 1.0 mph WSW1.6 kmh WSW 4.0 mph6.4 kmh 29.65 in1004.1 mb 0.00 in0.0 mm 0.00 in0.0 mm 0.00 in0.0 mm
04:25 AM 53.2°F11.8°C 49.7°F9.8°C 88% Calm Calm 9.0 mph14.5 kmh 29.65 in1004.1 mb 0.00 in0.0 mm 0.00 in0.0 mm 0.00 in0.0 mm
04:20 AM 53.2°F11.8°C 50.1°F10.1°C 89% Calm Calm 9.0 mph14.5 kmh 29.65 in1004.1 mb 0.00 in0.0 mm 0.00 in0.0 mm 0.00 in0.0 mm
04:15 AM 53.3°F11.8°C 50.5°F10.3°C 90% Calm Calm 5.0 mph8.0 kmh 29.65 in1004.1 mb 0.00 in0.0 mm 0.00 in0.0 mm 0.00 in0.0 mm
04:10 AM 53.4°F11.9°C 50.6°F10.3°C 90% Calm Calm 4.0 mph6.4 kmh 29.64 in1003.7 mb 0.00 in0.0 mm 0.00 in0.0 mm 0.00 in0.0 mm
04:05 AM 53.5°F11.9°C 50.6°F10.3°C 90% Calm Calm 4.0 mph6.4 kmh 29.64 in1003.7 mb 0.00 in0.0 mm 0.00 in0.0 mm 0.00 in0.0 mm
04:00 AM 53.7°F12.1°C 50.8°F10.4°C 90% Calm Calm 4.0 mph6.4 kmh 29.64 in1003.7 mb 0.00 in0.0 mm 0.00 in0.0 mm 0.00 in0.0 mm
03:55 AM 53.7°F12.1°C 51.1°F10.6°C 91% Calm Calm 8.0 mph12.9 kmh 29.64 in1003.7 mb 0.00 in0.0 mm 0.00 in0.0 mm 0.00 in0.0 mm
03:50 AM 53.8°F12.1°C 51.2°F10.7°C 91% 1.0 mph WSW1.6 kmh WSW 6.0 mph9.7 kmh 29.64 in1003.7 mb 0.00 in0.0 mm 0.00 in0.0 mm 0.00 in0.0 mm
03:45 AM 53.8°F12.1°C 51.2°F10.7°C 91% Calm Calm 6.0 mph9.7 kmh 29.63 in1003.4 mb 0.00 in0.0 mm 0.00 in0.0 mm 0.00 in0.0 mm
03:40 AM 53.9°F12.2°C 51.0°F10.6°C 90% 1.0 mph W1.6 kmh W 6.0 mph9.7 kmh 29.63 in1003.4 mb 0.00 in0.0 mm 0.00 in0.0 mm 0.00 in0.0 mm
03:35 AM 54.0°F12.2°C 51.1°F10.6°C 90% 2.0 mph WSW3.2 kmh WSW 3.0 mph4.8 kmh 29.63 in1003.4 mb 0.00 in0.0 mm 0.00 in0.0 mm 0.00 in0.0 mm
03:30 AM 54.2°F12.3°C 51.0°F10.6°C 89% Calm Calm -- 29.62 in1003.0 mb 0.00 in0.0 mm 0.00 in0.0 mm 0.00 in0.0 mm
03:25 AM 54.4°F12.4°C 51.2°F10.7°C 89% 2.0 mph WSW3.2 kmh WSW 8.0 mph12.9 kmh 29.62 in1003.0 mb 0.00 in0.0 mm 0.00 in0.0 mm 0.00 in0.0 mm
03:20 AM 54.5°F12.5°C 51.3°F10.7°C 89% Calm Calm 8.0 mph12.9 kmh 29.62 in1003.0 mb 0.00 in0.0 mm 0.00 in0.0 mm 0.00 in0.0 mm
03:15 AM 54.7°F12.6°C 51.5°F10.8°C 89% Calm Calm 8.0 mph12.9 kmh 29.62 in1003.0 mb 0.00 in0.0 mm 0.00 in0.0 mm 0.00 in0.0 mm
03:10 AM 54.8°F12.7°C 51.6°F10.9°C 89% 2.0 mph WSW3.2 kmh WSW 8.0 mph12.9 kmh 29.62 in1003.0 mb 0.00 in0.0 mm 0.00 in0.0 mm 0.00 in0.0 mm
03:05 AM 54.9°F12.7°C 51.7°F10.9°C 89% 1.0 mph WSW1.6 kmh WSW 8.0 mph12.9 kmh 29.62 in1003.0 mb 0.00 in0.0 mm 0.00 in0.0 mm 0.00 in0.0 mm
03:00 AM 54.9°F12.7°C 51.7°F10.9°C 89% 3.0 mph WSW4.8 kmh WSW 4.0 mph6.4 kmh 29.61 in1002.7 mb 0.00 in0.0 mm 0.00 in0.0 mm 0.00 in0.0 mm
02:55 AM 55.1°F12.8°C 51.9°F11.1°C 89% Calm Calm 7.0 mph11.3 kmh 29.61 in1002.7 mb 0.00 in0.0 mm 0.00 in0.0 mm 0.00 in0.0 mm
02:50 AM 55.1°F12.8°C 51.9°F11.1°C 89% Calm Calm 7.0 mph11.3 kmh 29.61 in1002.7 mb 0.00 in0.0 mm 0.00 in0.0 mm 0.00 in0.0 mm
02:45 AM 55.2°F12.9°C 52.0°F11.1°C 89% 2.0 mph WSW3.2 kmh WSW 7.0 mph11.3 kmh 29.61 in1002.7 mb 0.00 in0.0 mm 0.00 in0.0 mm 0.00 in0.0 mm
02:40 AM 55.2°F12.9°C 52.3°F11.3°C 90% Calm Calm 7.0 mph11.3 kmh 29.61 in1002.7 mb 0.00 in0.0 mm 0.00 in0.0 mm 0.00 in0.0 mm
02:35 AM 55.1°F12.8°C 52.2°F11.2°C 90% Calm Calm 7.0 mph11.3 kmh 29.60 in1002.4 mb 0.00 in0.0 mm 0.00 in0.0 mm 0.00 in0.0 mm
02:30 AM 55.0°F12.8°C 52.4°F11.3°C 91% 5.0 mph W8.0 kmh W 5.0 mph8.0 kmh 29.60 in1002.4 mb 0.00 in0.0 mm 0.00 in0.0 mm 0.00 in0.0 mm
02:25 AM 55.0°F12.8°C 53.0°F11.7°C 93% 4.0 mph NW6.4 kmh NW 7.0 mph11.3 kmh 29.60 in1002.4 mb 0.00 in0.0 mm 0.00 in0.0 mm 0.00 in0.0 mm
02:20 AM 55.0°F12.8°C 53.0°F11.7°C 93% 1.0 mph W1.6 kmh W 7.0 mph11.3 kmh 29.60 in1002.4 mb 0.00 in0.0 mm 0.00 in0.0 mm 0.00 in0.0 mm
02:15 AM 55.2°F12.9°C 53.5°F11.9°C 94% Calm Calm 7.0 mph11.3 kmh 29.60 in1002.4 mb 0.00 in0.0 mm 0.00 in0.0 mm 0.00 in0.0 mm
02:10 AM 55.3°F12.9°C 53.6°F12.0°C 94% 1.0 mph W1.6 kmh W 7.0 mph11.3 kmh 29.60 in1002.4 mb 0.00 in0.0 mm 0.00 in0.0 mm 0.00 in0.0 mm
02:05 AM 55.4°F13.0°C 53.7°F12.1°C 94% Calm Calm 7.0 mph11.3 kmh 29.60 in1002.4 mb 0.00 in0.0 mm 0.00 in0.0 mm 0.00 in0.0 mm
02:00 AM 55.4°F13.0°C 53.7°F12.1°C 94% 1.0 mph WSW1.6 kmh WSW 3.0 mph4.8 kmh 29.60 in1002.4 mb 0.00 in0.0 mm 0.00 in0.0 mm 0.00 in0.0 mm
01:55 AM 55.5°F13.1°C 53.8°F12.1°C 94% 2.0 mph W3.2 kmh W 6.0 mph9.7 kmh 29.60 in1002.4 mb 0.00 in0.0 mm 0.00 in0.0 mm 0.00 in0.0 mm
01:50 AM 55.6°F13.1°C 54.2°F12.3°C 95% 2.0 mph W3.2 kmh W 6.0 mph9.7 kmh 29.60 in1002.4 mb 0.00 in0.0 mm 0.00 in0.0 mm 0.00 in0.0 mm
01:45 AM 55.8°F13.2°C 54.4°F12.4°C 95% Calm Calm 5.0 mph8.0 kmh 29.60 in1002.4 mb 0.00 in0.0 mm 0.00 in0.0 mm 0.00 in0.0 mm
01:40 AM 55.9°F13.3°C 54.5°F12.5°C 95% Calm Calm 5.0 mph8.0 kmh 29.60 in1002.4 mb 0.00 in0.0 mm 0.00 in0.0 mm 0.00 in0.0 mm
01:35 AM 56.0°F13.3°C 54.6°F12.6°C 95% Calm Calm 5.0 mph8.0 kmh 29.60 in1002.4 mb 0.00 in0.0 mm 0.00 in0.0 mm 0.00 in0.0 mm
01:30 AM 56.1°F13.4°C 54.7°F12.6°C 95% Calm Calm 5.0 mph8.0 kmh 29.60 in1002.4 mb 0.00 in0.0 mm 0.00 in0.0 mm 0.00 in0.0 mm
01:25 AM 56.2°F13.4°C 54.8°F12.7°C 95% 2.0 mph WSW3.2 kmh WSW 5.0 mph8.0 kmh 29.59 in1002.0 mb 0.00 in0.0 mm 0.00 in0.0 mm 0.00 in0.0 mm
01:20 AM 56.3°F13.5°C 54.9°F12.7°C 95% Calm Calm 4.0 mph6.4 kmh 29.59 in1002.0 mb 0.00 in0.0 mm 0.00 in0.0 mm 0.00 in0.0 mm
01:15 AM 56.4°F13.6°C 55.0°F12.8°C 95% Calm Calm 4.0 mph6.4 kmh 29.59 in1002.0 mb 0.00 in0.0 mm 0.00 in0.0 mm 0.00 in0.0 mm
01:10 AM 56.5°F13.6°C 55.1°F12.8°C 95% Calm Calm 4.0 mph6.4 kmh 29.59 in1002.0 mb 0.00 in0.0 mm 0.00 in0.0 mm 0.00 in0.0 mm
01:05 AM 56.6°F13.7°C 55.2°F12.9°C 95% Calm Calm 4.0 mph6.4 kmh 29.59 in1002.0 mb 0.00 in0.0 mm 0.00 in0.0 mm 0.00 in0.0 mm
01:00 AM 56.6°F13.7°C 55.2°F12.9°C 95% 3.0 mph WSW4.8 kmh WSW 3.0 mph4.8 kmh 29.59 in1002.0 mb 0.00 in0.0 mm 0.00 in0.0 mm 0.00 in0.0 mm
12:55 AM 56.7°F13.7°C 55.3°F12.9°C 95% Calm Calm 5.0 mph8.0 kmh 29.58 in1001.7 mb 0.00 in0.0 mm 0.00 in0.0 mm 0.00 in0.0 mm
12:50 AM 56.8°F13.8°C 55.4°F13.0°C 95% 1.0 mph WSW1.6 kmh WSW 5.0 mph8.0 kmh 29.58 in1001.7 mb 0.00 in0.0 mm 0.00 in0.0 mm 0.00 in0.0 mm
12:45 AM 56.8°F13.8°C 55.4°F13.0°C 95% 4.0 mph W6.4 kmh W 5.0 mph8.0 kmh 29.58 in1001.7 mb 0.00 in0.0 mm 0.00 in0.0 mm 0.00 in0.0 mm
12:40 AM 56.8°F13.8°C 55.4°F13.0°C 95% Calm Calm 4.0 mph6.4 kmh 29.58 in1001.7 mb 0.00 in0.0 mm 0.00 in0.0 mm 0.00 in0.0 mm
12:35 AM 56.9°F13.8°C 55.5°F13.1°C 95% Calm Calm 3.0 mph4.8 kmh 29.58 in1001.7 mb 0.00 in0.0 mm 0.00 in0.0 mm 0.00 in0.0 mm
12:30 AM 56.9°F13.8°C 55.5°F13.1°C 95% Calm Calm -- 29.58 in1001.7 mb 0.00 in0.0 mm 0.00 in0.0 mm 0.00 in0.0 mm
12:25 AM 57.0°F13.9°C 55.6°F13.1°C 95% Calm Calm 5.0 mph8.0 kmh 29.58 in1001.7 mb 0.00 in0.0 mm 0.00 in0.0 mm 0.00 in0.0 mm
12:20 AM 57.1°F13.9°C 55.7°F13.2°C 95% 3.0 mph WSW4.8 kmh WSW 5.0 mph8.0 kmh 29.58 in1001.7 mb 0.00 in0.0 mm 0.00 in0.0 mm 0.00 in0.0 mm
12:15 AM 57.1°F13.9°C 55.7°F13.2°C 95% Calm Calm 5.0 mph8.0 kmh 29.58 in1001.7 mb 0.00 in0.0 mm 0.00 in0.0 mm 0.00 in0.0 mm
12:10 AM 57.2°F14.0°C 55.8°F13.2°C 95% Calm Calm 5.0 mph8.0 kmh 29.58 in1001.7 mb 0.00 in0.0 mm 0.00 in0.0 mm 0.00 in0.0 mm
12:05 AM 57.3°F14.1°C 55.9°F13.3°C 95% Calm Calm 5.0 mph8.0 kmh 29.58 in1001.7 mb 0.00 in0.0 mm 0.00 in0.0 mm 0.00 in0.0 mm
12:00 AM 57.3°F14.1°C 55.9°F13.3°C 95% Calm Calm 5.0 mph8.0 kmh 29.58 in1001.7 mb 0.00 in0.0 mm 0.00 in0.0 mm 0.00 in0.0 mm